createdAt,value
2022-07-25T00:00:35.525Z,90.68
2022-07-25T00:03:24.831Z,92.34
2022-07-25T00:06:17.774Z,89.80
2022-07-25T00:09:04.840Z,91.91
2022-07-25T00:11:51.968Z,91.67
2022-07-25T00:14:38.687Z,90.88
2022-07-25T00:17:25.471Z,90.80
2022-07-25T00:20:14.062Z,94.31
2022-07-25T00:23:00.858Z,91.39
2022-07-25T00:25:47.592Z,91.38
2022-07-25T00:28:34.416Z,90.91
2022-07-25T00:31:21.227Z,91.69
2022-07-25T00:34:08.156Z,91.46
2022-07-25T00:36:56.412Z,92.05
2022-07-25T00:39:43.199Z,91.11
2022-07-25T00:42:30.307Z,90.74
2022-07-25T00:45:16.900Z,90.25
2022-07-25T00:48:03.621Z,90.21
2022-07-25T00:50:50.596Z,89.92
2022-07-25T00:53:39.640Z,89.55
2022-07-25T00:56:26.542Z,90.11
2022-07-25T00:59:13.592Z,91.89
2022-07-25T01:02:00.456Z,90.58
2022-07-25T01:04:51.098Z,91.15
2022-07-25T01:07:39.741Z,92.61
2022-07-25T01:10:28.046Z,92.16
2022-07-25T01:13:14.922Z,91.85
2022-07-25T01:16:01.559Z,92.15
2022-07-25T01:18:48.225Z,92.58
2022-07-25T01:21:39.445Z,93.95
2022-07-25T01:24:26.297Z,93.99
2022-07-25T01:27:17.486Z,93.10
2022-07-25T01:30:05.885Z,91.90
2022-07-25T01:32:53.089Z,91.86
2022-07-25T01:35:43.436Z,91.84
2022-07-25T01:38:31.978Z,91.40
2022-07-25T01:41:22.610Z,93.21
2022-07-25T01:44:09.950Z,91.24
2022-07-25T01:46:56.911Z,92.04
2022-07-25T01:49:44.228Z,91.36
2022-07-25T01:52:31.053Z,91.38
2022-07-25T01:55:19.377Z,90.70
2022-07-25T01:58:07.448Z,91.24
2022-07-25T02:00:54.879Z,90.74
2022-07-25T02:03:41.587Z,91.00
2022-07-25T02:06:28.416Z,91.49
2022-07-25T02:09:15.198Z,91.14
2022-07-25T02:12:03.387Z,90.41
2022-07-25T02:14:49.769Z,90.19
2022-07-25T02:17:36.475Z,90.26
2022-07-25T02:20:23.394Z,90.55
2022-07-25T02:23:09.945Z,90.81
2022-07-25T02:25:56.765Z,91.57
2022-07-25T02:28:44.992Z,91.21
2022-07-25T02:31:31.718Z,90.91
2022-07-25T02:34:18.620Z,92.11
2022-07-25T02:37:05.155Z,90.19
2022-07-25T02:39:51.993Z,90.88
2022-07-25T02:42:39.823Z,91.10
2022-07-25T02:45:28.165Z,91.45
2022-07-25T02:48:15.153Z,91.30
2022-07-25T02:51:01.872Z,90.59
2022-07-25T02:53:57.221Z,90.93
2022-07-25T02:56:44.572Z,90.61
2022-07-25T02:59:32.069Z,90.50
2022-07-25T03:02:20.577Z,90.31
2022-07-25T03:05:08.486Z,90.87
2022-07-25T03:07:54.944Z,90.45
2022-07-25T03:10:41.846Z,91.06
2022-07-25T03:13:28.545Z,91.01
2022-07-25T03:16:15.745Z,91.74
2022-07-25T03:19:04.025Z,90.55
2022-07-25T03:21:53.109Z,90.57
2022-07-25T03:24:42.791Z,90.59
2022-07-25T03:27:33.597Z,92.22
2022-07-25T03:30:26.258Z,90.20
2022-07-25T03:33:13.850Z,91.52
2022-07-25T03:36:03.363Z,89.30
2022-07-25T03:38:50.169Z,89.13
2022-07-25T03:41:41.701Z,91.53
2022-07-25T03:44:32.129Z,90.48
2022-07-25T03:47:23.485Z,90.85
2022-07-25T03:50:11.696Z,89.89
2022-07-25T03:52:59.956Z,91.62
2022-07-25T03:55:47.531Z,89.58
2022-07-25T03:58:35.876Z,88.76
2022-07-25T04:01:23.801Z,89.91
2022-07-25T04:04:14.027Z,90.35
2022-07-25T04:07:01.010Z,91.56
2022-07-25T04:09:49.124Z,89.67
2022-07-25T04:12:36.070Z,89.60
2022-07-25T04:15:22.548Z,91.17
2022-07-25T04:18:09.339Z,90.49
2022-07-25T04:21:00.772Z,90.42
2022-07-25T04:23:47.495Z,90.22
2022-07-25T04:26:35.665Z,88.97
2022-07-25T04:29:22.437Z,88.57
2022-07-25T04:32:09.440Z,88.30
2022-07-25T04:34:56.122Z,88.17
2022-07-25T04:37:42.918Z,90.20
2022-07-25T04:40:29.847Z,91.33
2022-07-25T04:43:18.032Z,91.04
2022-07-25T04:46:05.490Z,91.57
2022-07-25T04:48:52.940Z,92.13
2022-07-25T04:51:39.963Z,91.25
2022-07-25T04:54:26.598Z,91.35
2022-07-25T04:57:13.421Z,92.48
2022-07-25T05:00:01.752Z,91.63
2022-07-25T05:02:48.061Z,91.79
2022-07-25T05:05:36.222Z,90.30
2022-07-25T05:08:23.301Z,88.62
2022-07-25T05:11:10.041Z,83.35
2022-07-25T05:13:56.487Z,82.87
2022-07-25T05:16:44.492Z,71.24
2022-07-25T05:19:31.366Z,65.84
2022-07-25T05:22:17.925Z,60.17
2022-07-25T05:25:08.217Z,69.14
2022-07-25T05:27:57.440Z,61.95
2022-07-25T05:30:44.360Z,54.60
2022-07-25T05:33:32.499Z,62.01
2022-07-25T05:36:19.059Z,56.65
2022-07-25T05:39:06.002Z,58.29
2022-07-25T05:41:52.659Z,61.05
2022-07-25T05:44:39.423Z,58.03
2022-07-25T05:47:26.129Z,58.79
2022-07-25T05:50:14.273Z,54.12
2022-07-25T05:53:00.908Z,56.01
2022-07-25T05:55:47.901Z,57.87
2022-07-25T05:58:34.758Z,52.43
2022-07-25T06:01:21.391Z,49.86
2022-07-25T06:04:08.413Z,51.43
2022-07-25T06:06:57.706Z,50.83
2022-07-25T06:09:44.210Z,50.99
2022-07-25T06:12:30.932Z,48.73
2022-07-25T06:15:22.821Z,49.28
2022-07-25T06:18:13.068Z,49.40
2022-07-25T06:20:59.905Z,50.31
2022-07-25T06:23:47.993Z,47.58
2022-07-25T06:26:34.876Z,47.48
2022-07-25T06:29:21.875Z,47.60
2022-07-25T06:32:08.335Z,48.85
2022-07-25T06:34:55.086Z,48.34
2022-07-25T06:37:41.793Z,49.02
2022-07-25T06:40:30.061Z,46.47
2022-07-25T06:43:16.810Z,46.90
2022-07-25T06:46:03.587Z,49.22
2022-07-25T06:48:50.369Z,48.37
2022-07-25T06:51:37.120Z,48.23
2022-07-25T06:54:24.003Z,46.80
2022-07-25T06:57:14.699Z,46.31
2022-07-25T07:00:01.160Z,46.26
2022-07-25T07:02:53.256Z,46.05
2022-07-25T07:05:43.315Z,47.21
2022-07-25T07:08:31.848Z,47.90
2022-07-25T07:11:18.563Z,47.96
2022-07-25T07:14:07.058Z,48.60
2022-07-25T07:16:53.659Z,48.36
2022-07-25T07:19:44.531Z,47.32
2022-07-25T07:22:32.084Z,46.53
2022-07-25T07:25:31.542Z,46.54
2022-07-25T07:28:18.283Z,46.90
2022-07-25T07:31:16.693Z,46.65
2022-07-25T07:34:05.011Z,45.24
2022-07-25T07:36:51.784Z,45.04
2022-07-25T07:39:38.577Z,45.16
2022-07-25T07:42:26.910Z,43.95
2022-07-25T07:45:16.369Z,44.94
2022-07-25T07:48:05.285Z,45.64
2022-07-25T07:50:52.167Z,43.68
2022-07-25T07:53:56.535Z,43.66
2022-07-25T07:56:43.256Z,44.81
2022-07-25T07:59:31.706Z,45.18
2022-07-25T08:02:20.002Z,43.66
2022-07-25T08:05:10.371Z,44.66
2022-07-25T08:07:59.404Z,43.30
2022-07-25T08:10:49.773Z,42.61
2022-07-25T08:13:38.760Z,44.20
2022-07-25T08:16:27.303Z,42.68
2022-07-25T08:19:15.738Z,41.87
2022-07-25T08:22:05.807Z,43.12
2022-07-25T08:24:52.696Z,42.00
2022-07-25T08:27:39.465Z,41.10
2022-07-25T08:30:26.418Z,40.85
2022-07-25T08:33:16.335Z,40.24
2022-07-25T08:36:02.968Z,41.48
2022-07-25T08:38:51.182Z,41.06
2022-07-25T08:41:41.903Z,41.14
2022-07-25T08:44:32.059Z,39.88
2022-07-25T08:47:19.356Z,39.15
2022-07-25T08:50:07.908Z,39.98
2022-07-25T08:53:16.191Z,40.02
2022-07-25T08:56:11.202Z,39.88
2022-07-25T08:58:59.247Z,38.15
2022-07-25T09:01:45.822Z,38.47
2022-07-25T09:04:34.632Z,39.63
2022-07-25T09:07:31.632Z,38.32
2022-07-25T09:10:20.301Z,38.35
2022-07-25T09:13:14.059Z,37.24
2022-07-25T09:16:00.879Z,37.40
2022-07-25T09:18:47.431Z,36.97
2022-07-25T09:21:34.054Z,37.53
2022-07-25T09:24:22.591Z,37.57
2022-07-25T09:27:12.664Z,37.53
2022-07-25T09:30:01.000Z,35.95
2022-07-25T09:32:47.947Z,37.95
2022-07-25T09:35:38.717Z,35.73
2022-07-25T09:38:26.537Z,36.77
2022-07-25T09:41:13.496Z,35.18
2022-07-25T09:44:03.146Z,36.85
2022-07-25T09:46:51.564Z,38.81
2022-07-25T09:49:42.074Z,37.75
2022-07-25T09:52:28.768Z,38.15
2022-07-25T09:55:16.574Z,37.41
2022-07-25T09:58:05.153Z,37.31
2022-07-25T10:01:00.275Z,37.23
2022-07-25T10:03:53.252Z,37.99
2022-07-25T10:06:42.719Z,35.97
2022-07-25T10:09:30.379Z,37.14
2022-07-25T10:12:21.143Z,36.28
2022-07-25T10:15:10.382Z,35.71
2022-07-25T10:18:07.226Z,34.86
2022-07-25T10:21:24.524Z,37.06
2022-07-25T10:24:13.049Z,36.48
2022-07-25T10:27:09.227Z,36.13
2022-07-25T10:29:56.965Z,36.66
2022-07-25T10:32:51.280Z,36.63
2022-07-25T10:35:38.581Z,35.90
2022-07-25T10:38:29.736Z,35.53
2022-07-25T10:41:17.578Z,36.05
2022-07-25T10:44:04.779Z,34.72
2022-07-25T10:46:51.223Z,36.11
2022-07-25T10:49:46.441Z,35.49
2022-07-25T10:52:59.230Z,36.92
2022-07-25T10:56:05.829Z,38.67
2022-07-25T10:58:54.639Z,36.30
2022-07-25T11:01:41.443Z,37.32
2022-07-25T11:04:29.217Z,38.04
2022-07-25T11:07:18.725Z,37.68
2022-07-25T11:10:06.912Z,37.13
2022-07-25T11:12:55.802Z,35.18
2022-07-25T11:15:42.977Z,35.50
2022-07-25T11:18:34.390Z,35.78
2022-07-25T11:21:20.917Z,36.54
2022-07-25T11:24:08.004Z,36.92
2022-07-25T11:26:54.608Z,36.88
2022-07-25T11:29:42.863Z,35.73
2022-07-25T11:32:39.808Z,35.64
2022-07-25T11:35:29.068Z,34.64
2022-07-25T11:38:16.154Z,34.57
2022-07-25T11:41:05.392Z,34.56
2022-07-25T11:43:52.028Z,36.35
2022-07-25T11:46:47.795Z,34.34
2022-07-25T11:49:47.281Z,36.39
2022-07-25T11:52:36.239Z,36.56
2022-07-25T11:55:29.668Z,34.35
2022-07-25T11:58:18.639Z,36.61
2022-07-25T12:01:13.329Z,34.13
2022-07-25T12:04:14.369Z,32.91
2022-07-25T12:07:06.027Z,33.82
2022-07-25T12:09:59.374Z,32.03
2022-07-25T12:12:49.805Z,32.18
2022-07-25T12:15:39.580Z,32.05
2022-07-25T12:18:26.614Z,32.71
2022-07-25T12:21:14.452Z,32.41
2022-07-25T12:24:02.294Z,33.74
2022-07-25T12:26:48.964Z,33.74
2022-07-25T12:29:35.723Z,30.44
2022-07-25T12:32:22.460Z,33.15
2022-07-25T12:35:11.098Z,33.63
2022-07-25T12:37:59.640Z,33.02
2022-07-25T12:40:47.573Z,33.68
2022-07-25T12:43:34.103Z,32.84
2022-07-25T12:46:21.330Z,32.68
2022-07-25T12:49:08.531Z,31.06
2022-07-25T12:51:58.148Z,32.47
2022-07-25T12:54:47.070Z,31.98
2022-07-25T12:57:34.017Z,31.81
2022-07-25T13:00:22.639Z,32.01
2022-07-25T13:03:09.175Z,30.83
2022-07-25T13:05:56.022Z,31.77
2022-07-25T13:08:42.643Z,31.23
2022-07-25T13:11:30.824Z,31.40
2022-07-25T13:14:17.537Z,30.74
2022-07-25T13:17:04.369Z,31.88
2022-07-25T13:19:51.058Z,33.39
2022-07-25T13:22:37.969Z,32.90
2022-07-25T13:25:24.661Z,32.25
2022-07-25T13:28:12.803Z,32.72
2022-07-25T13:31:00.625Z,32.19
2022-07-25T13:33:47.985Z,32.41
2022-07-25T13:36:35.260Z,31.91
2022-07-25T13:39:35.916Z,32.20
2022-07-25T13:42:27.543Z,32.79
2022-07-25T13:45:15.785Z,32.17
2022-07-25T13:48:28.388Z,31.50
2022-07-25T13:51:13.243Z,32.24
2022-07-25T13:54:13.924Z,31.67
2022-07-25T13:57:03.373Z,30.93
2022-07-25T13:59:51.067Z,32.08
2022-07-25T14:02:40.461Z,31.27
2022-07-25T14:05:28.874Z,30.97
2022-07-25T14:08:16.239Z,30.85
2022-07-25T14:11:02.960Z,31.31
2022-07-25T14:13:49.788Z,30.65
2022-07-25T14:16:36.714Z,30.01
2022-07-25T14:19:24.878Z,30.41
2022-07-25T14:22:11.676Z,29.51
2022-07-25T14:25:01.053Z,30.07
2022-07-25T14:27:48.062Z,29.94
2022-07-25T14:30:34.919Z,30.53
2022-07-25T14:33:21.288Z,29.85
2022-07-25T14:36:13.365Z,29.62
2022-07-25T14:39:00.317Z,30.11
2022-07-25T14:41:46.910Z,29.72
2022-07-25T14:44:33.578Z,29.24
2022-07-25T14:47:20.549Z,30.16
2022-07-25T14:50:07.926Z,29.95
2022-07-25T14:52:57.121Z,30.79
2022-07-25T14:55:44.908Z,29.92
2022-07-25T14:58:34.050Z,31.19
2022-07-25T15:01:25.765Z,31.25
2022-07-25T15:04:13.914Z,30.54
2022-07-25T15:07:00.438Z,31.26
2022-07-25T15:09:48.500Z,31.05
2022-07-25T15:12:35.293Z,31.75
2022-07-25T15:15:22.139Z,29.99
2022-07-25T15:18:13.642Z,32.40
2022-07-25T15:21:02.054Z,33.86
2022-07-25T15:23:48.800Z,32.84
2022-07-25T15:26:37.844Z,32.98
2022-07-25T15:29:24.309Z,31.73
2022-07-25T15:32:10.981Z,32.29
2022-07-25T15:34:57.894Z,31.96
2022-07-25T15:37:44.752Z,31.01
2022-07-25T15:40:31.511Z,33.16
2022-07-25T15:43:19.895Z,32.94
2022-07-25T15:46:06.807Z,31.40
2022-07-25T15:48:53.606Z,30.27
2022-07-25T15:51:40.366Z,30.37
2022-07-25T15:54:29.504Z,30.32
2022-07-25T15:57:16.583Z,30.38
2022-07-25T16:00:10.789Z,30.78
2022-07-25T16:02:58.227Z,32.07
2022-07-25T16:05:44.801Z,31.54
2022-07-25T16:08:32.217Z,29.60
2022-07-25T16:11:19.252Z,30.64
2022-07-25T16:14:06.567Z,29.72
2022-07-25T16:16:54.836Z,31.18
2022-07-25T16:19:41.522Z,31.80
2022-07-25T16:22:28.233Z,31.40
2022-07-25T16:25:15.003Z,30.26
2022-07-25T16:28:02.015Z,30.67
2022-07-25T16:30:48.917Z,31.05
2022-07-25T16:33:36.990Z,30.05
2022-07-25T16:36:25.430Z,30.00
2022-07-25T16:39:12.132Z,30.01
2022-07-25T16:41:58.824Z,31.45
2022-07-25T16:44:47.851Z,30.82
2022-07-25T16:47:34.275Z,30.13
2022-07-25T16:50:22.517Z,31.69
2022-07-25T16:53:09.275Z,30.90
2022-07-25T16:55:56.220Z,30.88
2022-07-25T16:58:42.942Z,31.36
2022-07-25T17:01:29.853Z,31.94
2022-07-25T17:04:16.505Z,30.41
2022-07-25T17:07:04.674Z,34.56
2022-07-25T17:09:51.127Z,35.98
2022-07-25T17:12:37.983Z,40.44
2022-07-25T17:15:24.875Z,44.88
2022-07-25T17:18:11.554Z,49.54
2022-07-25T17:20:58.612Z,65.67
2022-07-25T17:23:47.237Z,75.98
2022-07-25T17:26:33.705Z,85.70
2022-07-25T17:29:21.769Z,89.76
2022-07-25T17:32:08.531Z,98.60
2022-07-25T17:34:55.051Z,100.00
2022-07-25T17:37:42.140Z,100.00
2022-07-25T17:40:30.400Z,100.00
2022-07-25T17:43:17.277Z,100.00
2022-07-25T17:46:06.746Z,100.00
2022-07-25T17:48:54.222Z,100.00
2022-07-25T17:51:40.971Z,100.00
2022-07-25T17:54:27.814Z,100.00
2022-07-25T17:57:15.933Z,100.00
2022-07-25T18:00:02.705Z,100.00
2022-07-25T18:02:58.149Z,100.00
2022-07-25T18:05:45.622Z,100.00
2022-07-25T18:08:35.257Z,100.00
2022-07-25T18:11:21.693Z,100.00
2022-07-25T18:14:10.139Z,100.00
2022-07-25T18:16:58.585Z,100.00
2022-07-25T18:19:45.660Z,100.00
2022-07-25T18:22:34.306Z,100.00
2022-07-25T18:25:21.458Z,100.00
2022-07-25T18:28:08.469Z,100.00
2022-07-25T18:30:56.448Z,100.00
2022-07-25T18:33:42.968Z,100.00
2022-07-25T18:36:29.965Z,100.00
2022-07-25T18:39:17.427Z,100.00
2022-07-25T18:42:03.740Z,100.00
2022-07-25T18:44:50.593Z,100.00
2022-07-25T18:47:40.103Z,100.00
2022-07-25T18:50:27.083Z,100.00
2022-07-25T18:53:13.664Z,100.00
2022-07-25T18:56:03.594Z,100.00
2022-07-25T18:58:50.391Z,100.00
2022-07-25T19:01:37.208Z,100.00
2022-07-25T19:04:26.083Z,100.00
2022-07-25T19:07:13.417Z,100.00
2022-07-25T19:09:59.967Z,100.00
2022-07-25T19:12:51.484Z,100.00
2022-07-25T19:15:38.983Z,100.00
2022-07-25T19:18:49.199Z,100.00
2022-07-25T19:21:41.542Z,100.00
2022-07-25T19:24:28.651Z,100.00
2022-07-25T19:27:15.530Z,100.00
2022-07-25T19:30:03.584Z,100.00
2022-07-25T19:32:51.829Z,100.00
2022-07-25T19:35:41.409Z,100.00
2022-07-25T19:38:30.372Z,100.00
2022-07-25T19:41:17.051Z,100.00
2022-07-25T19:44:07.544Z,100.00
2022-07-25T19:47:00.069Z,100.00
2022-07-25T19:49:48.256Z,100.00
2022-07-25T19:52:34.850Z,100.00
2022-07-25T19:55:23.685Z,100.00
2022-07-25T19:58:10.463Z,100.00
2022-07-25T20:00:56.902Z,100.00
2022-07-25T20:03:44.129Z,100.00
2022-07-25T20:06:30.666Z,100.00
2022-07-25T20:09:17.621Z,100.00
2022-07-25T20:12:06.184Z,100.00
2022-07-25T20:14:52.739Z,100.00
2022-07-25T20:17:39.583Z,100.00
2022-07-25T20:20:26.815Z,100.00
2022-07-25T20:23:16.585Z,100.00
2022-07-25T20:26:05.044Z,100.00
2022-07-25T20:28:53.933Z,100.00
2022-07-25T20:31:41.586Z,100.00
2022-07-25T20:34:28.296Z,100.00
2022-07-25T20:37:15.072Z,100.00
2022-07-25T20:40:01.807Z,100.00
2022-07-25T20:42:48.938Z,100.00
2022-07-25T20:45:37.634Z,100.00
2022-07-25T20:48:24.292Z,100.00
2022-07-25T20:51:20.595Z,100.00
2022-07-25T20:54:11.874Z,100.00
2022-07-25T20:56:59.764Z,100.00
2022-07-25T20:59:49.761Z,100.00
2022-07-25T21:02:41.146Z,100.00
2022-07-25T21:05:30.268Z,100.00
2022-07-25T21:08:20.502Z,100.00
2022-07-25T21:11:08.616Z,100.00
2022-07-25T21:14:00.393Z,100.00
2022-07-25T21:16:48.475Z,100.00
2022-07-25T21:19:36.736Z,100.00
2022-07-25T21:22:28.783Z,100.00
2022-07-25T21:25:17.418Z,100.00
2022-07-25T21:28:10.767Z,100.00
2022-07-25T21:31:01.845Z,100.00
2022-07-25T21:33:48.555Z,100.00
2022-07-25T21:36:38.556Z,100.00
2022-07-25T21:39:26.967Z,100.00
2022-07-25T21:42:16.033Z,100.00
2022-07-25T21:45:04.162Z,100.00
2022-07-25T21:47:52.884Z,100.00
2022-07-25T21:50:48.318Z,100.00
2022-07-25T21:53:39.795Z,100.00
2022-07-25T21:56:26.680Z,100.00
2022-07-25T21:59:13.668Z,100.00
2022-07-25T22:02:00.344Z,100.00
2022-07-25T22:04:47.125Z,100.00
2022-07-25T22:07:33.872Z,100.00
2022-07-25T22:10:22.463Z,100.00
2022-07-25T22:13:12.755Z,100.00
2022-07-25T22:15:59.265Z,100.00
2022-07-25T22:18:46.307Z,100.00
2022-07-25T22:21:32.984Z,100.00
2022-07-25T22:24:19.869Z,100.00
2022-07-25T22:27:10.337Z,100.00
2022-07-25T22:29:57.549Z,100.00
2022-07-25T22:32:44.475Z,100.00
2022-07-25T22:35:33.820Z,100.00
2022-07-25T22:38:20.967Z,100.00
2022-07-25T22:41:07.698Z,100.00
2022-07-25T22:43:57.325Z,100.00
2022-07-25T22:46:46.295Z,100.00
2022-07-25T22:49:32.821Z,100.00
2022-07-25T22:52:21.216Z,100.00
2022-07-25T22:55:11.810Z,100.00
2022-07-25T22:57:58.922Z,100.00
2022-07-25T23:00:47.428Z,100.00
2022-07-25T23:03:34.514Z,100.00
2022-07-25T23:06:22.051Z,100.00
2022-07-25T23:09:08.934Z,100.00
2022-07-25T23:11:55.863Z,100.00
2022-07-25T23:14:45.235Z,100.00
2022-07-25T23:17:33.271Z,100.00
2022-07-25T23:20:20.030Z,100.00
2022-07-25T23:23:06.993Z,100.00
2022-07-25T23:25:53.499Z,100.00
2022-07-25T23:28:40.227Z,100.00
2022-07-25T23:31:27.211Z,100.00
2022-07-25T23:34:15.082Z,100.00
2022-07-25T23:37:01.813Z,100.00
2022-07-25T23:39:48.395Z,100.00
2022-07-25T23:42:35.064Z,100.00
2022-07-25T23:45:21.754Z,100.00
2022-07-25T23:48:10.935Z,100.00
2022-07-25T23:50:59.048Z,100.00
2022-07-25T23:53:45.901Z,100.00
2022-07-25T23:56:32.652Z,100.00
2022-07-25T23:59:19.500Z,100.00
